sensor_id;sensor_type;location;lat;lon;timestamp;pressure;altitude;pressure_sealevel;temperature;humidity
19457;BME280;9867;48.094;11.478;2023-02-04T00:01:14;96058.06;;;3.82;100.00
19457;BME280;9867;48.094;11.478;2023-02-04T00:03:41;96060.47;;;3.73;100.00
19457;BME280;9867;48.094;11.478;2023-02-04T00:06:07;96057.13;;;3.83;100.00
19457;BME280;9867;48.094;11.478;2023-02-04T00:08:34;96059.41;;;3.76;100.00
19457;BME280;9867;48.094;11.478;2023-02-04T00:11:03;96087.97;;;3.68;100.00
19457;BME280;9867;48.094;11.478;2023-02-04T00:13:32;96053.25;;;3.69;100.00
19457;BME280;9867;48.094;11.478;2023-02-04T00:15:58;96055.00;;;3.68;100.00
19457;BME280;9867;48.094;11.478;2023-02-04T00:18:25;96042.06;;;3.71;100.00
19457;BME280;9867;48.094;11.478;2023-02-04T00:20:51;96036.72;;;3.74;100.00
19457;BME280;9867;48.094;11.478;2023-02-04T00:23:18;96057.00;;;3.65;100.00
19457;BME280;9867;48.094;11.478;2023-02-04T00:25:44;96034.16;;;3.65;100.00
19457;BME280;9867;48.094;11.478;2023-02-04T00:28:11;96031.50;;;3.66;100.00
19457;BME280;9867;48.094;11.478;2023-02-04T00:30:38;96042.44;;;3.67;100.00
19457;BME280;9867;48.094;11.478;2023-02-04T00:33:04;96053.50;;;3.66;100.00
19457;BME280;9867;48.094;11.478;2023-02-04T00:35:30;96044.31;;;3.65;100.00
19457;BME280;9867;48.094;11.478;2023-02-04T00:37:57;96053.09;;;3.61;100.00
19457;BME280;9867;48.094;11.478;2023-02-04T00:40:24;96060.03;;;3.59;100.00
19457;BME280;9867;48.094;11.478;2023-02-04T00:42:51;96071.53;;;3.53;100.00
19457;BME280;9867;48.094;11.478;2023-02-04T00:45:18;96064.06;;;3.52;100.00
19457;BME280;9867;48.094;11.478;2023-02-04T00:47:44;96062.69;;;3.48;100.00
19457;BME280;9867;48.094;11.478;2023-02-04T00:50:11;96048.84;;;3.52;100.00
19457;BME280;9867;48.094;11.478;2023-02-04T00:52:37;96050.16;;;3.56;100.00
19457;BME280;9867;48.094;11.478;2023-02-04T00:55:04;96050.44;;;3.62;100.00
19457;BME280;9867;48.094;11.478;2023-02-04T00:57:32;96070.06;;;3.60;100.00
19457;BME280;9867;48.094;11.478;2023-02-04T00:59:59;96059.09;;;3.50;100.00
19457;BME280;9867;48.094;11.478;2023-02-04T01:02:26;96089.28;;;3.53;100.00
19457;BME280;9867;48.094;11.478;2023-02-04T01:04:52;96080.06;;;3.62;100.00
19457;BME280;9867;48.094;11.478;2023-02-04T01:07:19;96074.97;;;3.42;100.00
19457;BME280;9867;48.094;11.478;2023-02-04T01:09:45;96077.25;;;3.46;100.00
19457;BME280;9867;48.094;11.478;2023-02-04T01:12:12;96083.06;;;3.36;100.00
19457;BME280;9867;48.094;11.478;2023-02-04T01:14:38;96076.53;;;3.34;100.00
19457;BME280;9867;48.094;11.478;2023-02-04T01:17:05;96083.75;;;3.29;100.00
19457;BME280;9867;48.094;11.478;2023-02-04T01:19:32;96098.03;;;3.30;100.00
19457;BME280;9867;48.094;11.478;2023-02-04T01:21:58;96106.28;;;3.32;100.00
19457;BME280;9867;48.094;11.478;2023-02-04T01:24:24;96095.31;;;3.31;100.00
19457;BME280;9867;48.094;11.478;2023-02-04T01:27:09;96096.41;;;3.29;100.00
19457;BME280;9867;48.094;11.478;2023-02-04T01:29:36;96098.66;;;3.32;100.00
19457;BME280;9867;48.094;11.478;2023-02-04T01:32:02;96108.25;;;3.19;100.00
19457;BME280;9867;48.094;11.478;2023-02-04T01:34:29;96129.44;;;3.18;100.00
19457;BME280;9867;48.094;11.478;2023-02-04T01:36:57;96090.91;;;3.24;100.00
19457;BME280;9867;48.094;11.478;2023-02-04T01:39:23;96087.34;;;3.36;100.00
19457;BME280;9867;48.094;11.478;2023-02-04T01:41:50;96092.16;;;3.29;100.00
19457;BME280;9867;48.094;11.478;2023-02-04T01:44:16;96086.16;;;3.30;100.00
19457;BME280;9867;48.094;11.478;2023-02-04T01:46:43;96107.75;;;3.25;100.00
19457;BME280;9867;48.094;11.478;2023-02-04T01:49:10;96112.06;;;3.13;100.00
19457;BME280;9867;48.094;11.478;2023-02-04T01:51:37;96124.44;;;3.27;100.00
19457;BME280;9867;48.094;11.478;2023-02-04T01:54:07;96123.63;;;3.27;100.00
19457;BME280;9867;48.094;11.478;2023-02-04T01:56:34;96124.81;;;3.32;100.00
19457;BME280;9867;48.094;11.478;2023-02-04T01:59:01;96121.25;;;3.35;100.00
19457;BME280;9867;48.094;11.478;2023-02-04T02:01:35;96119.50;;;3.35;100.00
19457;BME280;9867;48.094;11.478;2023-02-04T02:04:02;96117.03;;;3.55;100.00
19457;BME280;9867;48.094;11.478;2023-02-04T02:06:29;96121.06;;;3.57;100.00
19457;BME280;9867;48.094;11.478;2023-02-04T02:08:55;96134.03;;;3.64;100.00
19457;BME280;9867;48.094;11.478;2023-02-04T02:11:24;96129.50;;;3.67;100.00
19457;BME280;9867;48.094;11.478;2023-02-04T02:13:51;96131.66;;;3.72;100.00
19457;BME280;9867;48.094;11.478;2023-02-04T02:16:18;96134.75;;;3.75;100.00
19457;BME280;9867;48.094;11.478;2023-02-04T02:18:45;96137.81;;;3.79;100.00
19457;BME280;9867;48.094;11.478;2023-02-04T02:21:13;96135.25;;;3.79;100.00
19457;BME280;9867;48.094;11.478;2023-02-04T02:23:46;96135.94;;;3.81;100.00
19457;BME280;9867;48.094;11.478;2023-02-04T02:26:13;96135.03;;;3.92;100.00
19457;BME280;9867;48.094;11.478;2023-02-04T02:28:40;96134.13;;;3.93;100.00
19457;BME280;9867;48.094;11.478;2023-02-04T02:31:07;96136.34;;;3.76;100.00
19457;BME280;9867;48.094;11.478;2023-02-04T02:33:35;96149.31;;;3.83;100.00
19457;BME280;9867;48.094;11.478;2023-02-04T02:36:02;96162.66;;;3.85;100.00
19457;BME280;9867;48.094;11.478;2023-02-04T02:38:28;96164.03;;;3.89;100.00
19457;BME280;9867;48.094;11.478;2023-02-04T02:40:55;96178.06;;;3.93;100.00
19457;BME280;9867;48.094;11.478;2023-02-04T02:43:24;96170.19;;;3.96;100.00
19457;BME280;9867;48.094;11.478;2023-02-04T02:45:53;96166.97;;;3.94;100.00
19457;BME280;9867;48.094;11.478;2023-02-04T02:48:21;96166.19;;;3.94;100.00
19457;BME280;9867;48.094;11.478;2023-02-04T02:50:48;96165.00;;;3.98;100.00
19457;BME280;9867;48.094;11.478;2023-02-04T02:53:16;96155.63;;;3.98;100.00
19457;BME280;9867;48.094;11.478;2023-02-04T02:55:44;96159.50;;;3.93;100.00
19457;BME280;9867;48.094;11.478;2023-02-04T02:58:20;96179.94;;;3.91;100.00
19457;BME280;9867;48.094;11.478;2023-02-04T03:00:46;96177.38;;;3.91;100.00
19457;BME280;9867;48.094;11.478;2023-02-04T03:03:17;96178.63;;;3.97;100.00
19457;BME280;9867;48.094;11.478;2023-02-04T03:05:49;96199.19;;;3.94;100.00
19457;BME280;9867;48.094;11.478;2023-02-04T03:08:17;96188.34;;;3.92;100.00
19457;BME280;9867;48.094;11.478;2023-02-04T03:10:45;96192.78;;;3.99;100.00
19457;BME280;9867;48.094;11.478;2023-02-04T03:13:13;96187.03;;;3.97;100.00
19457;BME280;9867;48.094;11.478;2023-02-04T03:15:42;96195.31;;;3.99;100.00
19457;BME280;9867;48.094;11.478;2023-02-04T03:18:10;96221.91;;;4.05;100.00
19457;BME280;9867;48.094;11.478;2023-02-04T03:20:38;96196.25;;;4.08;100.00
19457;BME280;9867;48.094;11.478;2023-02-04T03:23:05;96205.22;;;4.12;100.00
19457;BME280;9867;48.094;11.478;2023-02-04T03:25:32;96204.69;;;3.99;100.00
19457;BME280;9867;48.094;11.478;2023-02-04T03:27:59;96202.94;;;3.99;100.00
19457;BME280;9867;48.094;11.478;2023-02-04T03:30:26;96220.97;;;4.06;100.00
19457;BME280;9867;48.094;11.478;2023-02-04T03:32:54;96215.47;;;3.91;100.00
19457;BME280;9867;48.094;11.478;2023-02-04T03:35:20;96238.31;;;3.91;100.00
19457;BME280;9867;48.094;11.478;2023-02-04T03:37:46;96231.50;;;3.92;100.00
19457;BME280;9867;48.094;11.478;2023-02-04T03:40:13;96227.31;;;3.81;100.00
19457;BME280;9867;48.094;11.478;2023-02-04T03:42:39;96243.34;;;3.82;100.00
19457;BME280;9867;48.094;11.478;2023-02-04T03:45:06;96240.41;;;3.86;100.00
19457;BME280;9867;48.094;11.478;2023-02-04T03:47:33;96240.28;;;3.88;100.00
19457;BME280;9867;48.094;11.478;2023-02-04T03:50:00;96240.53;;;3.85;100.00
19457;BME280;9867;48.094;11.478;2023-02-04T03:52:27;96248.53;;;3.80;100.00
19457;BME280;9867;48.094;11.478;2023-02-04T03:54:53;96262.16;;;3.79;100.00
19457;BME280;9867;48.094;11.478;2023-02-04T03:57:20;96264.16;;;3.75;100.00
19457;BME280;9867;48.094;11.478;2023-02-04T03:59:46;96277.22;;;3.71;100.00
19457;BME280;9867;48.094;11.478;2023-02-04T04:02:12;96276.44;;;3.70;100.00
19457;BME280;9867;48.094;11.478;2023-02-04T04:04:39;96283.91;;;3.72;100.00
19457;BME280;9867;48.094;11.478;2023-02-04T04:07:06;96291.91;;;3.67;100.00
19457;BME280;9867;48.094;11.478;2023-02-04T04:09:33;96297.59;;;3.60;100.00
19457;BME280;9867;48.094;11.478;2023-02-04T04:11:59;96291.41;;;3.53;100.00
19457;BME280;9867;48.094;11.478;2023-02-04T04:14:25;96294.75;;;3.53;100.00
19457;BME280;9867;48.094;11.478;2023-02-04T04:16:52;96300.31;;;3.47;100.00
19457;BME280;9867;48.094;11.478;2023-02-04T04:19:18;96309.03;;;3.33;100.00
19457;BME280;9867;48.094;11.478;2023-02-04T04:21:44;96309.53;;;3.27;100.00
19457;BME280;9867;48.094;11.478;2023-02-04T04:24:11;96310.38;;;3.17;100.00
19457;BME280;9867;48.094;11.478;2023-02-04T04:26:38;96318.78;;;3.17;100.00
19457;BME280;9867;48.094;11.478;2023-02-04T04:29:04;96320.88;;;3.12;100.00
19457;BME280;9867;48.094;11.478;2023-02-04T04:31:31;96317.66;;;3.10;100.00
19457;BME280;9867;48.094;11.478;2023-02-04T04:33:57;96318.91;;;3.16;100.00
19457;BME280;9867;48.094;11.478;2023-02-04T04:36:24;96321.91;;;3.09;100.00
19457;BME280;9867;48.094;11.478;2023-02-04T04:38:50;96320.81;;;3.02;100.00
19457;BME280;9867;48.094;11.478;2023-02-04T04:41:17;96327.16;;;2.97;100.00
19457;BME280;9867;48.094;11.478;2023-02-04T04:43:43;96326.00;;;2.90;100.00
19457;BME280;9867;48.094;11.478;2023-02-04T04:46:10;96333.75;;;2.88;100.00
19457;BME280;9867;48.094;11.478;2023-02-04T04:48:36;96337.31;;;2.86;100.00
19457;BME280;9867;48.094;11.478;2023-02-04T04:51:03;96339.19;;;2.72;100.00
19457;BME280;9867;48.094;11.478;2023-02-04T04:53:29;96348.41;;;2.73;100.00
19457;BME280;9867;48.094;11.478;2023-02-04T04:55:56;96352.91;;;2.81;100.00
19457;BME280;9867;48.094;11.478;2023-02-04T04:58:23;96348.88;;;2.79;100.00
19457;BME280;9867;48.094;11.478;2023-02-04T05:00:49;96353.59;;;2.72;100.00
19457;BME280;9867;48.094;11.478;2023-02-04T05:03:16;96352.09;;;2.69;100.00
19457;BME280;9867;48.094;11.478;2023-02-04T05:05:42;96364.53;;;2.61;100.00
19457;BME280;9867;48.094;11.478;2023-02-04T05:08:09;96365.34;;;2.73;100.00
19457;BME280;9867;48.094;11.478;2023-02-04T05:10:38;96373.97;;;2.70;100.00
19457;BME280;9867;48.094;11.478;2023-02-04T05:13:04;96378.69;;;2.75;100.00
19457;BME280;9867;48.094;11.478;2023-02-04T05:15:31;96382.63;;;2.68;100.00
19457;BME280;9867;48.094;11.478;2023-02-04T05:17:57;96382.84;;;2.65;100.00
19457;BME280;9867;48.094;11.478;2023-02-04T05:20:24;96380.31;;;2.65;100.00
19457;BME280;9867;48.094;11.478;2023-02-04T05:22:51;96382.50;;;2.69;100.00
19457;BME280;9867;48.094;11.478;2023-02-04T05:25:17;96384.44;;;2.66;100.00
19457;BME280;9867;48.094;11.478;2023-02-04T05:27:44;96380.78;;;2.70;100.00
19457;BME280;9867;48.094;11.478;2023-02-04T05:30:11;96389.06;;;2.72;100.00
19457;BME280;9867;48.094;11.478;2023-02-04T05:32:38;96374.56;;;2.63;100.00
19457;BME280;9867;48.094;11.478;2023-02-04T05:35:05;96393.78;;;2.65;100.00
19457;BME280;9867;48.094;11.478;2023-02-04T05:37:32;96388.25;;;2.60;100.00
19457;BME280;9867;48.094;11.478;2023-02-04T05:39:58;96388.41;;;2.59;100.00
19457;BME280;9867;48.094;11.478;2023-02-04T05:42:25;96400.00;;;2.61;100.00
19457;BME280;9867;48.094;11.478;2023-02-04T05:44:51;96396.00;;;2.59;100.00
19457;BME280;9867;48.094;11.478;2023-02-04T05:47:17;96398.63;;;2.57;100.00
19457;BME280;9867;48.094;11.478;2023-02-04T05:49:46;96410.94;;;2.51;100.00
19457;BME280;9867;48.094;11.478;2023-02-04T05:52:12;96411.28;;;2.46;100.00
19457;BME280;9867;48.094;11.478;2023-02-04T05:54:38;96422.34;;;2.45;100.00
19457;BME280;9867;48.094;11.478;2023-02-04T05:57:05;96423.84;;;2.48;100.00
19457;BME280;9867;48.094;11.478;2023-02-04T05:59:31;96430.63;;;2.47;100.00
19457;BME280;9867;48.094;11.478;2023-02-04T06:01:57;96426.25;;;2.49;100.00
19457;BME280;9867;48.094;11.478;2023-02-04T06:04:24;96432.59;;;2.44;100.00
19457;BME280;9867;48.094;11.478;2023-02-04T06:06:51;96434.91;;;2.35;100.00
19457;BME280;9867;48.094;11.478;2023-02-04T06:09:17;96439.47;;;2.42;100.00
19457;BME280;9867;48.094;11.478;2023-02-04T06:11:44;96450.53;;;2.40;100.00
19457;BME280;9867;48.094;11.478;2023-02-04T06:14:10;96449.38;;;2.45;100.00
19457;BME280;9867;48.094;11.478;2023-02-04T06:16:37;96457.69;;;2.47;100.00
19457;BME280;9867;48.094;11.478;2023-02-04T06:19:03;96463.41;;;2.37;100.00
19457;BME280;9867;48.094;11.478;2023-02-04T06:21:29;96470.91;;;2.39;100.00
19457;BME280;9867;48.094;11.478;2023-02-04T06:23:57;96467.44;;;2.40;100.00
19457;BME280;9867;48.094;11.478;2023-02-04T06:26:23;96475.97;;;2.39;100.00
19457;BME280;9867;48.094;11.478;2023-02-04T06:28:49;96472.41;;;2.42;100.00
19457;BME280;9867;48.094;11.478;2023-02-04T06:31:16;96485.53;;;2.47;100.00
19457;BME280;9867;48.094;11.478;2023-02-04T06:33:42;96487.13;;;2.36;100.00
19457;BME280;9867;48.094;11.478;2023-02-04T06:36:09;96491.75;;;2.31;100.00
19457;BME280;9867;48.094;11.478;2023-02-04T06:38:35;96494.59;;;2.27;100.00
19457;BME280;9867;48.094;11.478;2023-02-04T06:41:02;96495.53;;;2.37;100.00
19457;BME280;9867;48.094;11.478;2023-02-04T06:43:29;96496.81;;;2.31;100.00
19457;BME280;9867;48.094;11.478;2023-02-04T06:45:55;96496.91;;;2.30;100.00
19457;BME280;9867;48.094;11.478;2023-02-04T06:48:22;96495.31;;;2.40;100.00
19457;BME280;9867;48.094;11.478;2023-02-04T06:50:48;96496.91;;;2.41;100.00
19457;BME280;9867;48.094;11.478;2023-02-04T06:53:14;96501.97;;;2.41;100.00
19457;BME280;9867;48.094;11.478;2023-02-04T06:55:41;96508.56;;;2.44;100.00
19457;BME280;9867;48.094;11.478;2023-02-04T06:58:08;96492.78;;;2.40;100.00
19457;BME280;9867;48.094;11.478;2023-02-04T07:00:34;96506.59;;;2.47;100.00
19457;BME280;9867;48.094;11.478;2023-02-04T07:03:01;96513.06;;;2.51;100.00
19457;BME280;9867;48.094;11.478;2023-02-04T07:05:27;96519.97;;;2.49;100.00
19457;BME280;9867;48.094;11.478;2023-02-04T07:07:54;96520.00;;;2.71;100.00
19457;BME280;9867;48.094;11.478;2023-02-04T07:10:20;96522.88;;;2.78;100.00
19457;BME280;9867;48.094;11.478;2023-02-04T07:12:46;96528.97;;;2.87;100.00
19457;BME280;9867;48.094;11.478;2023-02-04T07:15:14;96526.13;;;4.32;100.00
19457;BME280;9867;48.094;11.478;2023-02-04T07:17:40;96541.00;;;4.04;100.00
19457;BME280;9867;48.094;11.478;2023-02-04T07:20:08;96552.66;;;4.07;100.00
19457;BME280;9867;48.094;11.478;2023-02-04T07:22:34;96550.19;;;3.53;100.00
19457;BME280;9867;48.094;11.478;2023-02-04T07:25:01;96555.47;;;3.50;100.00
19457;BME280;9867;48.094;11.478;2023-02-04T07:27:27;96571.25;;;3.64;100.00
19457;BME280;9867;48.094;11.478;2023-02-04T07:29:53;96569.97;;;3.59;100.00
19457;BME280;9867;48.094;11.478;2023-02-04T07:32:21;96567.34;;;3.38;100.00
19457;BME280;9867;48.094;11.478;2023-02-04T07:34:47;96575.22;;;3.89;100.00
19457;BME280;9867;48.094;11.478;2023-02-04T07:37:13;96587.69;;;3.92;100.00
19457;BME280;9867;48.094;11.478;2023-02-04T07:39:40;96592.41;;;3.97;100.00
19457;BME280;9867;48.094;11.478;2023-02-04T07:42:07;96590.03;;;4.16;100.00
19457;BME280;9867;48.094;11.478;2023-02-04T07:44:42;96583.81;;;3.77;100.00
19457;BME280;9867;48.094;11.478;2023-02-04T07:47:09;96598.41;;;3.96;100.00
19457;BME280;9867;48.094;11.478;2023-02-04T07:49:36;96603.16;;;3.89;100.00
19457;BME280;9867;48.094;11.478;2023-02-04T07:52:02;96609.72;;;3.81;100.00
19457;BME280;9867;48.094;11.478;2023-02-04T07:54:29;96610.53;;;3.92;100.00
19457;BME280;9867;48.094;11.478;2023-02-04T07:56:55;96607.69;;;3.63;100.00
19457;BME280;9867;48.094;11.478;2023-02-04T07:59:21;96598.81;;;4.12;100.00
19457;BME280;9867;48.094;11.478;2023-02-04T08:01:48;96608.28;;;3.67;100.00
19457;BME280;9867;48.094;11.478;2023-02-04T08:04:14;96602.63;;;3.41;100.00
19457;BME280;9867;48.094;11.478;2023-02-04T08:06:42;96605.31;;;3.28;100.00
19457;BME280;9867;48.094;11.478;2023-02-04T08:09:09;96586.28;;;3.23;100.00
19457;BME280;9867;48.094;11.478;2023-02-04T08:11:35;96600.66;;;3.33;100.00
19457;BME280;9867;48.094;11.478;2023-02-04T08:14:02;96615.78;;;3.35;100.00
19457;BME280;9867;48.094;11.478;2023-02-04T08:16:28;96608.06;;;3.36;100.00
19457;BME280;9867;48.094;11.478;2023-02-04T08:18:54;96604.47;;;3.39;100.00
19457;BME280;9867;48.094;11.478;2023-02-04T08:21:21;96610.94;;;3.43;100.00
19457;BME280;9867;48.094;11.478;2023-02-04T08:23:48;96620.28;;;3.42;100.00
19457;BME280;9867;48.094;11.478;2023-02-04T08:26:14;96626.63;;;3.48;100.00
19457;BME280;9867;48.094;11.478;2023-02-04T08:28:41;96635.38;;;3.44;100.00
19457;BME280;9867;48.094;11.478;2023-02-04T08:31:07;96611.16;;;3.40;100.00
19457;BME280;9867;48.094;11.478;2023-02-04T08:33:36;96634.94;;;3.50;100.00
19457;BME280;9867;48.094;11.478;2023-02-04T08:36:04;96637.69;;;3.47;100.00
19457;BME280;9867;48.094;11.478;2023-02-04T08:38:30;96643.78;;;3.56;100.00
19457;BME280;9867;48.094;11.478;2023-02-04T08:40:58;96650.03;;;3.63;100.00
19457;BME280;9867;48.094;11.478;2023-02-04T08:43:24;96651.41;;;3.67;100.00
19457;BME280;9867;48.094;11.478;2023-02-04T08:45:51;96656.34;;;3.80;100.00
19457;BME280;9867;48.094;11.478;2023-02-04T08:48:17;96657.72;;;3.84;100.00
19457;BME280;9867;48.094;11.478;2023-02-04T08:50:44;96659.00;;;3.89;100.00
19457;BME280;9867;48.094;11.478;2023-02-04T08:53:10;96660.16;;;3.96;100.00
19457;BME280;9867;48.094;11.478;2023-02-04T08:55:36;96654.97;;;3.87;100.00
19457;BME280;9867;48.094;11.478;2023-02-04T08:58:04;96658.31;;;3.98;100.00
19457;BME280;9867;48.094;11.478;2023-02-04T09:00:30;96661.06;;;3.95;100.00
19457;BME280;9867;48.094;11.478;2023-02-04T09:02:58;96663.00;;;4.03;100.00
19457;BME280;9867;48.094;11.478;2023-02-04T09:05:25;96662.31;;;4.23;100.00
19457;BME280;9867;48.094;11.478;2023-02-04T09:07:51;96662.75;;;4.17;100.00
19457;BME280;9867;48.094;11.478;2023-02-04T09:10:18;96671.28;;;4.27;100.00
19457;BME280;9867;48.094;11.478;2023-02-04T09:12:44;96679.28;;;4.23;100.00
19457;BME280;9867;48.094;11.478;2023-02-04T09:15:11;96678.47;;;4.22;100.00
19457;BME280;9867;48.094;11.478;2023-02-04T09:17:38;96680.31;;;4.09;100.00
19457;BME280;9867;48.094;11.478;2023-02-04T09:20:05;96680.88;;;4.24;100.00
19457;BME280;9867;48.094;11.478;2023-02-04T09:22:32;96673.44;;;4.32;100.00
19457;BME280;9867;48.094;11.478;2023-02-04T09:24:58;96702.13;;;4.23;100.00
19457;BME280;9867;48.094;11.478;2023-02-04T09:27:25;96685.50;;;4.07;100.00
19457;BME280;9867;48.094;11.478;2023-02-04T09:29:51;96688.28;;;4.04;100.00
19457;BME280;9867;48.094;11.478;2023-02-04T09:32:18;96683.56;;;4.11;100.00
19457;BME280;9867;48.094;11.478;2023-02-04T09:34:44;96692.81;;;4.01;100.00
19457;BME280;9867;48.094;11.478;2023-02-04T09:37:11;96688.53;;;4.01;100.00
19457;BME280;9867;48.094;11.478;2023-02-04T09:39:37;96700.63;;;4.09;100.00
19457;BME280;9867;48.094;11.478;2023-02-04T09:42:04;96711.41;;;4.01;100.00
19457;BME280;9867;48.094;11.478;2023-02-04T09:44:31;96712.53;;;3.97;100.00
19457;BME280;9867;48.094;11.478;2023-02-04T09:46:58;96704.66;;;4.11;100.00
19457;BME280;9867;48.094;11.478;2023-02-04T09:49:27;96714.47;;;4.05;100.00
19457;BME280;9867;48.094;11.478;2023-02-04T09:51:54;96713.09;;;4.12;100.00
19457;BME280;9867;48.094;11.478;2023-02-04T09:54:22;96713.91;;;4.24;100.00
19457;BME280;9867;48.094;11.478;2023-02-04T09:56:48;96708.00;;;4.23;100.00
19457;BME280;9867;48.094;11.478;2023-02-04T09:59:17;96724.94;;;4.34;100.00
19457;BME280;9867;48.094;11.478;2023-02-04T10:01:45;96728.75;;;4.28;100.00
19457;BME280;9867;48.094;11.478;2023-02-04T10:04:14;96714.47;;;4.16;100.00
19457;BME280;9867;48.094;11.478;2023-02-04T10:06:42;96718.06;;;4.25;100.00
19457;BME280;9867;48.094;11.478;2023-02-04T10:09:10;96719.53;;;4.38;100.00
19457;BME280;9867;48.094;11.478;2023-02-04T10:11:37;96719.88;;;4.45;100.00
19457;BME280;9867;48.094;11.478;2023-02-04T10:14:08;96712.44;;;4.53;100.00
19457;BME280;9867;48.094;11.478;2023-02-04T10:16:39;96730.25;;;4.42;100.00
19457;BME280;9867;48.094;11.478;2023-02-04T10:19:12;96733.84;;;4.39;100.00
19457;BME280;9867;48.094;11.478;2023-02-04T10:21:40;96729.91;;;4.47;100.00
19457;BME280;9867;48.094;11.478;2023-02-04T10:24:12;96722.41;;;4.45;100.00
19457;BME280;9867;48.094;11.478;2023-02-04T10:26:39;96722.81;;;4.61;100.00
19457;BME280;9867;48.094;11.478;2023-02-04T10:29:11;96727.94;;;4.82;100.00
19457;BME280;9867;48.094;11.478;2023-02-04T10:31:41;96728.28;;;4.77;100.00
19457;BME280;9867;48.094;11.478;2023-02-04T10:34:13;96715.38;;;5.01;100.00
19457;BME280;9867;48.094;11.478;2023-02-04T10:36:43;96727.13;;;5.13;100.00
19457;BME280;9867;48.094;11.478;2023-02-04T10:39:12;96720.78;;;5.29;100.00
19457;BME280;9867;48.094;11.478;2023-02-04T10:41:47;96721.38;;;5.00;100.00
19457;BME280;9867;48.094;11.478;2023-02-04T10:44:17;96706.38;;;4.97;100.00
19457;BME280;9867;48.094;11.478;2023-02-04T10:46:44;96724.44;;;5.15;100.00
19457;BME280;9867;48.094;11.478;2023-02-04T10:49:17;96720.81;;;4.97;100.00
19457;BME280;9867;48.094;11.478;2023-02-04T10:51:44;96726.31;;;4.81;100.00
19457;BME280;9867;48.094;11.478;2023-02-04T10:54:12;96718.75;;;4.70;100.00
19457;BME280;9867;48.094;11.478;2023-02-04T10:56:59;96719.69;;;4.58;100.00
19457;BME280;9867;48.094;11.478;2023-02-04T10:59:25;96718.75;;;4.70;100.00
19457;BME280;9867;48.094;11.478;2023-02-04T11:01:54;96721.91;;;4.94;100.00
19457;BME280;9867;48.094;11.478;2023-02-04T11:04:21;96728.72;;;4.94;100.00
19457;BME280;9867;48.094;11.478;2023-02-04T11:06:48;96728.03;;;4.92;100.00
19457;BME280;9867;48.094;11.478;2023-02-04T11:09:16;96732.19;;;4.93;100.00
19457;BME280;9867;48.094;11.478;2023-02-04T11:11:46;96728.41;;;5.08;100.00
19457;BME280;9867;48.094;11.478;2023-02-04T11:14:23;96723.53;;;5.37;100.00
19457;BME280;9867;48.094;11.478;2023-02-04T11:16:50;96728.78;;;5.45;100.00
19457;BME280;9867;48.094;11.478;2023-02-04T11:19:31;96724.56;;;5.34;100.00
19457;BME280;9867;48.094;11.478;2023-02-04T11:22:04;96722.16;;;5.12;100.00
19457;BME280;9867;48.094;11.478;2023-02-04T11:24:32;96719.16;;;5.07;100.00
19457;BME280;9867;48.094;11.478;2023-02-04T11:27:05;96716.03;;;4.83;100.00
19457;BME280;9867;48.094;11.478;2023-02-04T11:29:33;96717.66;;;4.40;100.00
19457;BME280;9867;48.094;11.478;2023-02-04T11:32:03;96724.88;;;4.02;100.00
19457;BME280;9867;48.094;11.478;2023-02-04T11:34:43;96728.13;;;3.93;100.00
19457;BME280;9867;48.094;11.478;2023-02-04T11:37:27;96725.34;;;3.73;100.00
19457;BME280;9867;48.094;11.478;2023-02-04T11:39:57;96733.56;;;3.77;100.00
19457;BME280;9867;48.094;11.478;2023-02-04T11:42:30;96737.44;;;4.26;100.00
19457;BME280;9867;48.094;11.478;2023-02-04T11:44:58;96729.72;;;4.70;100.00
19457;BME280;9867;48.094;11.478;2023-02-04T11:47:26;96734.75;;;5.13;100.00
19457;BME280;9867;48.094;11.478;2023-02-04T11:49:55;96738.66;;;5.38;100.00
19457;BME280;9867;48.094;11.478;2023-02-04T11:52:22;96739.22;;;5.42;100.00
19457;BME280;9867;48.094;11.478;2023-02-04T11:54:54;96742.72;;;5.71;100.00
19457;BME280;9867;48.094;11.478;2023-02-04T11:57:20;96743.41;;;5.73;100.00
19457;BME280;9867;48.094;11.478;2023-02-04T11:59:47;96738.19;;;5.75;100.00
19457;BME280;9867;48.094;11.478;2023-02-04T12:02:16;96742.44;;;5.23;100.00
19457;BME280;9867;48.094;11.478;2023-02-04T12:04:50;96737.81;;;4.96;100.00
19457;BME280;9867;48.094;11.478;2023-02-04T12:07:20;96735.75;;;4.69;100.00
19457;BME280;9867;48.094;11.478;2023-02-04T12:09:49;96736.97;;;4.43;100.00
19457;BME280;9867;48.094;11.478;2023-02-04T12:12:23;96733.25;;;4.36;100.00
19457;BME280;9867;48.094;11.478;2023-02-04T12:14:57;96735.84;;;4.02;100.00
19457;BME280;9867;48.094;11.478;2023-02-04T12:17:24;96736.66;;;3.69;100.00
19457;BME280;9867;48.094;11.478;2023-02-04T12:19:50;96744.59;;;3.65;100.00
19457;BME280;9867;48.094;11.478;2023-02-04T12:22:17;96744.72;;;3.63;100.00
19457;BME280;9867;48.094;11.478;2023-02-04T12:24:43;96742.91;;;3.76;100.00
19457;BME280;9867;48.094;11.478;2023-02-04T12:27:09;96745.66;;;4.07;100.00
19457;BME280;9867;48.094;11.478;2023-02-04T12:29:37;96741.25;;;4.31;100.00
19457;BME280;9867;48.094;11.478;2023-02-04T12:32:03;96739.69;;;4.51;100.00
19457;BME280;9867;48.094;11.478;2023-02-04T12:34:30;96735.53;;;4.61;100.00
19457;BME280;9867;48.094;11.478;2023-02-04T12:36:56;96735.28;;;4.53;100.00
19457;BME280;9867;48.094;11.478;2023-02-04T12:39:23;96735.31;;;4.85;100.00
19457;BME280;9867;48.094;11.478;2023-02-04T12:41:49;96739.59;;;4.85;100.00
19457;BME280;9867;48.094;11.478;2023-02-04T12:44:15;96742.84;;;4.75;100.00
19457;BME280;9867;48.094;11.478;2023-02-04T12:46:42;96740.44;;;5.06;100.00
19457;BME280;9867;48.094;11.478;2023-02-04T12:49:09;96741.56;;;4.81;100.00
19457;BME280;9867;48.094;11.478;2023-02-04T12:51:35;96740.88;;;4.79;100.00
19457;BME280;9867;48.094;11.478;2023-02-04T12:54:02;96723.84;;;4.70;100.00
19457;BME280;9867;48.094;11.478;2023-02-04T12:56:28;96737.13;;;4.62;100.00
19457;BME280;9867;48.094;11.478;2023-02-04T12:58:55;96736.66;;;4.68;100.00
19457;BME280;9867;48.094;11.478;2023-02-04T13:01:21;96736.38;;;4.83;100.00